Time;durP1;ratioP1;P1;durP2;ratioP2;P2;SDS_P1;SDS_P2;PMS_P1;PMS_P2;Temp;Humidity;BMP_temperature;BMP_pressure;BME280_temperature;BME280_humidity;BME280_pressure;Samples;Min_cycle;Max_cycle;Signal;HPM_P1;HPM_P2
2023/02/27 00:00:52;;;;;;;4.97;4.53;;;7.30;1.00;;;;;;5115561;28;20027;-60
2023/02/27 00:03:18;;;;;;;5.10;4.47;;;7.40;1.00;;;;;;5102726;28;20499;-60
2023/02/27 00:05:43;;;;;;;5.40;4.80;;;7.40;1.00;;;;;;5086077;28;20028;-60
2023/02/27 00:08:09;;;;;;;4.47;3.50;;;7.40;1.00;;;;;;5113511;28;20107;-60
2023/02/27 00:10:35;;;;;;;4.50;3.70;;;7.40;1.00;;;;;;5115908;28;20020;-60
2023/02/27 00:13:01;;;;;;;5.23;3.47;;;7.50;1.00;;;;;;5115931;28;20057;-60
2023/02/27 00:15:29;;;;;;;5.03;3.70;;;7.50;1.00;;;;;;5116218;28;20066;-60
2023/02/27 00:17:55;;;;;;;5.43;3.87;;;7.40;1.00;;;;;;5115855;28;20015;-60
2023/02/27 00:20:20;;;;;;;6.13;3.27;;;7.50;1.00;;;;;;5111240;28;20409;-60
2023/02/27 00:22:46;;;;;;;4.33;3.40;;;7.50;1.00;;;;;;5100768;28;20508;-60
2023/02/27 00:25:13;;;;;;;3.43;3.13;;;7.50;1.00;;;;;;5114527;28;20016;-60
2023/02/27 00:27:39;;;;;;;4.47;3.33;;;7.50;1.00;;;;;;5115960;28;20028;-60
2023/02/27 00:30:08;;;;;;;4.37;3.00;;;7.50;1.00;;;;;;5115096;28;20026;-60
2023/02/27 00:32:35;;;;;;;3.50;2.73;;;7.50;1.00;;;;;;5115540;28;20532;-60
2023/02/27 00:35:05;;;;;;;4.50;3.07;;;7.40;1.00;;;;;;5115466;28;20499;-60
2023/02/27 00:37:31;;;;;;;4.10;3.07;;;7.40;1.00;;;;;;5114073;28;20020;-60
2023/02/27 00:39:57;;;;;;;4.40;2.83;;;7.50;1.00;;;;;;5114118;28;20078;-60
2023/02/27 00:42:23;;;;;;;3.67;2.80;;;7.50;1.00;;;;;;5114039;28;20489;-60
2023/02/27 00:44:48;;;;;;;5.00;3.10;;;7.50;1.00;;;;;;5113901;28;20019;-60
2023/02/27 00:47:14;;;;;;;3.13;2.13;;;7.50;1.00;;;;;;5115392;28;20415;-60
2023/02/27 00:49:39;;;;;;;3.30;2.00;;;7.50;1.00;;;;;;5115187;28;20022;-60
2023/02/27 00:52:05;;;;;;;1.97;1.77;;;7.50;1.00;;;;;;5115260;28;20038;-60
2023/02/27 00:54:31;;;;;;;6.87;2.40;;;7.40;1.00;;;;;;5096627;28;20024;-59
2023/02/27 00:56:56;;;;;;;2.43;2.13;;;7.40;1.00;;;;;;5114862;28;20097;-60
2023/02/27 00:59:22;;;;;;;2.03;1.83;;;7.40;1.00;;;;;;5115425;28;20023;-60
2023/02/27 01:01:48;;;;;;;2.83;2.20;;;7.50;1.00;;;;;;5114922;28;20119;-60
2023/02/27 01:04:14;;;;;;;2.30;1.90;;;7.50;1.00;;;;;;5115283;28;20420;-60
2023/02/27 01:06:39;;;;;;;1.60;1.40;;;7.40;1.00;;;;;;5114559;28;20024;-60
2023/02/27 01:09:06;;;;;;;3.37;2.00;;;7.50;1.00;;;;;;5110149;28;20067;-60
2023/02/27 01:11:31;;;;;;;3.30;2.10;;;7.50;1.00;;;;;;5112185;28;20107;-60
2023/02/27 01:13:57;;;;;;;3.03;1.60;;;7.40;1.00;;;;;;5114850;28;20103;-60
2023/02/27 01:16:23;;;;;;;2.30;1.50;;;7.40;1.00;;;;;;5114658;28;20184;-60
2023/02/27 01:18:49;;;;;;;2.10;1.90;;;7.40;1.00;;;;;;5112480;28;20019;-60
2023/02/27 01:21:15;;;;;;;1.87;1.63;;;7.40;1.00;;;;;;5108003;28;20047;-60
2023/02/27 01:23:41;;;;;;;1.20;1.10;;;7.50;1.00;;;;;;5114617;28;20012;-60
2023/02/27 01:26:07;;;;;;;2.17;1.70;;;7.40;1.00;;;;;;5112398;28;20031;-60
2023/02/27 01:28:33;;;;;;;2.20;1.67;;;7.40;1.00;;;;;;5114473;27;20020;-60
2023/02/27 01:30:58;;;;;;;2.10;1.50;;;7.40;1.00;;;;;;5114527;28;20073;-60
2023/02/27 01:33:24;;;;;;;1.53;1.43;;;7.40;1.00;;;;;;5113130;28;20110;-60
2023/02/27 01:35:50;;;;;;;1.60;1.50;;;7.40;1.00;;;;;;5114678;28;20330;-60
2023/02/27 01:38:25;;;;;;;1.73;1.63;;;7.40;1.00;;;;;;5114436;28;20070;-60
2023/02/27 01:40:51;;;;;;;1.70;1.60;;;7.40;1.00;;;;;;5114115;28;20019;-60
2023/02/27 01:43:19;;;;;;;1.70;1.30;;;7.40;1.00;;;;;;5114488;28;20028;-60
2023/02/27 01:45:47;;;;;;;2.10;1.70;;;7.40;1.00;;;;;;5100829;28;20122;-60
2023/02/27 01:48:13;;;;;;;1.80;1.53;;;7.40;1.00;;;;;;5114444;28;20077;-60
2023/02/27 01:50:48;;;;;;;2.47;1.60;;;7.40;1.00;;;;;;5114173;28;20035;-60
2023/02/27 01:53:14;;;;;;;2.25;1.55;;;7.30;1.00;;;;;;5103719;28;20034;-60
2023/02/27 01:55:40;;;;;;;1.90;1.60;;;7.20;1.00;;;;;;5113879;28;20051;-60
2023/02/27 01:58:09;;;;;;;2.03;1.70;;;7.20;1.00;;;;;;5114174;28;20120;-60
2023/02/27 02:00:34;;;;;;;1.80;1.70;;;7.20;1.00;;;;;;5113814;28;20504;-60
2023/02/27 02:03:10;;;;;;;2.73;1.43;;;7.20;1.00;;;;;;5114008;28;20040;-60
2023/02/27 02:05:36;;;;;;;2.70;2.10;;;7.30;1.00;;;;;;5113138;28;20019;-60
2023/02/27 02:08:02;;;;;;;2.70;2.08;;;7.30;1.00;;;;;;5111654;28;20392;-60
2023/02/27 02:10:29;;;;;;;2.93;2.13;;;7.40;1.00;;;;;;5113043;28;20205;-60
2023/02/27 02:12:55;;;;;;;2.97;2.10;;;7.30;1.00;;;;;;5111489;28;20028;-60
2023/02/27 02:15:26;;;;;;;2.00;1.80;;;7.30;1.00;;;;;;5113237;28;20027;-60
2023/02/27 02:18:06;;;;;;;3.73;1.70;;;7.20;1.00;;;;;;5101765;28;20035;-60
2023/02/27 02:21:02;;;;;;;2.80;1.90;;;7.10;1.00;;;;;;5112814;28;20028;-60
2023/02/27 02:23:37;;;;;;;2.40;2.20;;;7.10;1.00;;;;;;5099257;28;20110;-60
2023/02/27 02:26:17;;;;;;;4.60;2.57;;;7.10;1.00;;;;;;5112563;28;20134;-60
2023/02/27 02:28:58;;;;;;;;;;;7.00;1.00;;;;;;5100843;28;20019;-60
2023/02/27 02:31:45;;;;;;;2.33;2.13;;;7.00;1.00;;;;;;5112854;28;19912;-60
2023/02/27 02:34:13;;;;;;;2.60;2.40;;;7.10;1.00;;;;;;5099151;28;20031;-60
2023/02/27 02:37:00;;;;;;;1.67;1.57;;;7.10;1.00;;;;;;5112472;28;20031;-60
2023/02/27 02:39:55;;;;;;;2.30;2.00;;;7.00;1.00;;;;;;5098984;28;20031;-60
2023/02/27 02:42:39;;;;;;;3.88;2.85;;;7.00;1.00;;;;;;5112189;28;20081;-60
2023/02/27 02:45:08;;;;;;;2.60;2.40;;;7.00;1.00;;;;;;5112573;28;20093;-60
2023/02/27 02:47:54;;;;;;;2.57;2.20;;;7.00;1.00;;;;;;5093333;28;20377;-60
2023/02/27 02:50:24;;;;;;;2.50;2.30;;;7.00;1.00;;;;;;5097289;28;20020;-61
2023/02/27 02:52:59;;;;;;;2.67;2.30;;;7.00;1.00;;;;;;5112330;28;20034;-60
2023/02/27 02:55:35;;;;;;;2.60;2.40;;;6.90;1.00;;;;;;5112454;28;20028;-60
2023/02/27 02:58:05;;;;;;;3.20;2.60;;;6.80;1.00;;;;;;5110766;28;20035;-60
2023/02/27 03:00:36;;;;;;;2.93;2.63;;;6.80;1.00;;;;;;5112304;28;20016;-61
2023/02/27 03:03:15;;;;;;;2.43;2.23;;;6.80;1.00;;;;;;5111865;28;20054;-60
2023/02/27 03:05:51;;;;;;;2.90;2.47;;;6.80;1.00;;;;;;5112127;28;20499;-60
2023/02/27 03:08:23;;;;;;;3.03;2.30;;;6.80;1.00;;;;;;5111972;28;20102;-60
2023/02/27 03:10:55;;;;;;;2.53;2.20;;;6.80;1.00;;;;;;5112191;28;20524;-60
2023/02/27 03:13:34;;;;;;;2.80;2.57;;;6.80;1.00;;;;;;5111875;28;20016;-60
2023/02/27 03:16:08;;;;;;;3.30;2.37;;;6.90;1.00;;;;;;5111991;28;20024;-60
2023/02/27 03:18:43;;;;;;;4.20;2.83;;;6.80;1.00;;;;;;5110708;28;20055;-60
2023/02/27 03:21:18;;;;;;;3.57;2.47;;;6.80;1.00;;;;;;5112157;28;20031;-60
2023/02/27 03:23:46;;;;;;;3.73;2.97;;;6.80;1.00;;;;;;5111941;28;20028;-60
2023/02/27 03:26:18;;;;;;;2.93;2.73;;;6.80;1.00;;;;;;5111872;28;20027;-60
2023/02/27 03:29:05;;;;;;;3.67;3.07;;;6.80;1.00;;;;;;5109290;28;20027;-61
2023/02/27 03:31:40;;;;;;;3.50;3.20;;;6.80;1.00;;;;;;5115506;28;20028;-61
2023/02/27 03:34:33;;;;;;;4.40;3.67;;;6.70;1.00;;;;;;5116058;28;20094;-60
2023/02/27 03:37:23;;;;;;;2.87;2.60;;;6.70;1.00;;;;;;5112927;28;20056;-60
2023/02/27 03:39:54;;;;;;;3.10;2.80;;;6.60;1.00;;;;;;5105204;28;20046;-60
2023/02/27 03:42:29;;;;;;;2.93;2.73;;;6.60;1.00;;;;;;5116032;28;20035;-60
2023/02/27 03:45:16;;;;;;;3.22;2.42;;;6.70;1.00;;;;;;5115829;28;20469;-60
2023/02/27 03:47:42;;;;;;;3.53;2.73;;;6.70;1.00;;;;;;5115651;28;20097;-60
2023/02/27 03:50:08;;;;;;;4.83;3.20;;;6.70;1.00;;;;;;5097290;28;20015;-60
2023/02/27 03:52:33;;;;;;;3.03;2.83;;;6.60;1.00;;;;;;5114161;28;20114;-60
2023/02/27 03:55:07;;;;;;;4.03;3.20;;;6.70;1.00;;;;;;5115508;28;20406;-61
2023/02/27 03:57:33;;;;;;;2.80;2.50;;;6.70;1.00;;;;;;5115591;27;20429;-60
2023/02/27 03:59:59;;;;;;;3.60;2.97;;;6.60;1.00;;;;;;5115517;28;20020;-60
2023/02/27 04:02:26;;;;;;;3.10;2.80;;;6.60;1.00;;;;;;5115779;28;20089;-60
2023/02/27 04:04:52;;;;;;;3.87;2.97;;;6.60;1.00;;;;;;5114059;28;20027;-60
2023/02/27 04:07:36;;;;;;;3.27;2.90;;;6.50;1.00;;;;;;5115629;28;20035;-60
2023/02/27 04:10:20;;;;;;;3.70;2.90;;;6.60;1.00;;;;;;5115280;28;20016;-60
2023/02/27 04:13:23;;;;;;;4.33;3.00;;;6.50;1.00;;;;;;5115434;28;20253;-60
2023/02/27 04:16:23;;;;;;;4.67;2.93;;;6.50;1.00;;;;;;5105599;28;20035;-60
2023/02/27 04:19:12;;;;;;;3.13;2.83;;;6.50;1.00;;;;;;5083639;28;20035;-60
2023/02/27 04:22:17;;;;;;;4.43;3.53;;;6.50;1.00;;;;;;5115146;28;20031;-60
2023/02/27 04:25:06;;;;;;;4.73;3.50;;;6.50;1.00;;;;;;5069924;28;20040;-60
2023/02/27 04:27:54;;;;;;;3.27;2.97;;;6.40;99.90;;;;;;5104670;28;20384;-61
2023/02/27 04:30:51;;;;;;;3.50;3.20;;;6.30;99.90;;;;;;5115932;28;20034;-60
2023/02/27 04:33:23;;;;;;;3.80;3.50;;;6.40;20.10;;;;;;5080949;28;20085;-60
2023/02/27 04:36:06;;;;;;;3.30;3.00;;;6.40;1.00;;;;;;5115768;28;20046;-61
2023/02/27 04:38:40;;;;;;;4.00;3.00;;;6.50;1.00;;;;;;5115580;28;20024;-61
2023/02/27 04:41:09;;;;;;;4.85;3.25;;;6.50;1.00;;;;;;5115443;28;20073;-60
2023/02/27 04:43:37;;;;;;;3.53;2.93;;;6.40;1.00;;;;;;5115164;28;20452;-61
2023/02/27 04:46:05;;;;;;;4.20;2.80;;;6.40;1.00;;;;;;5115705;28;20031;-60
2023/02/27 04:48:44;;;;;;;3.60;3.30;;;6.40;1.00;;;;;;5115533;28;20355;-61
2023/02/27 04:51:14;;;;;;;3.27;2.63;;;6.50;1.00;;;;;;5110662;27;20050;-60
2023/02/27 04:53:58;;;;;;;4.83;3.20;;;6.50;1.00;;;;;;5111336;27;20027;-60
2023/02/27 04:56:36;;;;;;;3.13;2.60;;;6.50;1.00;;;;;;5106377;28;20040;-61
2023/02/27 04:59:13;;;;;;;3.03;2.50;;;6.40;1.00;;;;;;5115370;28;20024;-61
2023/02/27 05:01:57;;;;;;;3.87;2.50;;;6.40;1.00;;;;;;5110096;28;20055;-61
2023/02/27 05:04:26;;;;;;;3.80;2.60;;;6.40;1.00;;;;;;5105972;28;20497;-61
2023/02/27 05:06:55;;;;;;;3.53;2.43;;;6.40;1.00;;;;;;5097861;27;20415;-61
2023/02/27 05:09:27;;;;;;;3.30;2.80;;;6.40;1.00;;;;;;5101455;28;20020;-61
2023/02/27 05:12:02;;;;;;;3.10;2.80;;;6.30;1.00;;;;;;5114967;28;20038;-61
2023/02/27 05:14:42;;;;;;;3.25;2.80;;;6.20;1.00;;;;;;5103112;28;20409;-61
2023/02/27 05:17:14;;;;;;;3.60;2.50;;;6.30;1.00;;;;;;5112904;28;20051;-61
2023/02/27 05:19:51;;;;;;;3.53;3.00;;;6.30;1.00;;;;;;5114917;28;20027;-61
2023/02/27 05:22:32;;;;;;;3.73;2.57;;;6.30;1.00;;;;;;5113198;28;20035;-61
2023/02/27 05:25:09;;;;;;;3.23;2.93;;;6.40;1.00;;;;;;5114947;28;20097;-61
2023/02/27 05:27:52;;;;;;;3.13;2.83;;;6.40;1.00;;;;;;5114555;28;20019;-61
2023/02/27 05:30:18;;;;;;;2.87;2.67;;;6.40;1.00;;;;;;5114924;28;20036;-61
2023/02/27 05:33:04;;;;;;;2.40;2.20;;;6.40;1.00;;;;;;5114528;28;20080;-61
2023/02/27 05:35:40;;;;;;;2.90;1.57;;;6.40;1.00;;;;;;5114459;28;20023;-61
2023/02/27 05:38:35;;;;;;;1.77;1.67;;;6.40;1.00;;;;;;5113135;28;20030;-61
2023/02/27 05:41:07;;;;;;;2.20;2.00;;;6.30;1.00;;;;;;5114197;28;20477;-61
2023/02/27 05:43:38;;;;;;;2.73;1.87;;;6.20;1.00;;;;;;5114515;28;20034;-61
2023/02/27 05:46:12;;;;;;;1.90;1.80;;;6.30;1.00;;;;;;5114517;28;20411;-61
2023/02/27 05:48:46;;;;;;;2.87;2.00;;;6.20;1.00;;;;;;5112973;28;20377;-61
2023/02/27 05:51:14;;;;;;;3.38;2.25;;;6.30;1.00;;;;;;5114158;28;20023;-61
2023/02/27 05:53:47;;;;;;;2.33;2.13;;;6.30;1.00;;;;;;5113133;27;20062;-61
2023/02/27 05:56:17;;;;;;;2.83;2.07;;;6.30;1.00;;;;;;5112502;28;20554;-62
2023/02/27 05:59:10;;;;;;;1.73;1.63;;;6.30;1.00;;;;;;5114409;28;20020;-61
2023/02/27 06:01:36;;;;;;;2.63;2.43;;;6.20;1.00;;;;;;5113863;28;20043;-61
2023/02/27 06:04:02;;;;;;;2.50;2.30;;;6.30;1.00;;;;;;5113883;28;20023;-61
2023/02/27 06:06:29;;;;;;;3.07;2.10;;;6.30;1.00;;;;;;5113990;28;20080;-61
2023/02/27 06:08:55;;;;;;;2.00;1.63;;;6.30;1.00;;;;;;5114036;28;20023;-61
2023/02/27 06:11:20;;;;;;;2.17;1.73;;;6.30;1.00;;;;;;5113787;28;20031;-61
2023/02/27 06:13:46;;;;;;;2.57;2.27;;;6.30;1.00;;;;;;5113915;28;20098;-61
2023/02/27 06:16:13;;;;;;;2.20;2.00;;;6.30;1.00;;;;;;5113629;28;20398;-61
2023/02/27 06:18:39;;;;;;;2.23;1.90;;;6.40;1.00;;;;;;5113550;28;20387;-61
2023/02/27 06:21:05;;;;;;;2.40;2.20;;;6.30;1.00;;;;;;5113533;28;20103;-61
2023/02/27 06:23:31;;;;;;;4.20;3.00;;;6.20;1.00;;;;;;5113640;28;20118;-61
2023/02/27 06:25:56;;;;;;;2.60;2.40;;;6.10;1.00;;;;;;5113555;28;20113;-61
2023/02/27 06:28:22;;;;;;;3.83;3.07;;;6.10;1.00;;;;;;5113515;28;20059;-61
2023/02/27 06:30:53;;;;;;;3.87;3.00;;;6.10;1.00;;;;;;5112195;28;20432;-61
2023/02/27 06:33:18;;;;;;;4.77;3.67;;;6.20;1.00;;;;;;5113546;28;20031;-61
2023/02/27 06:35:50;;;;;;;3.63;3.27;;;6.20;1.00;;;;;;5112173;28;20392;-62
2023/02/27 06:38:16;;;;;;;5.73;3.73;;;6.10;1.00;;;;;;5113424;28;20422;-61
2023/02/27 06:40:42;;;;;;;4.53;3.80;;;6.00;1.00;;;;;;5113560;28;20023;-61
2023/02/27 06:43:08;;;;;;;4.13;3.73;;;6.10;1.00;;;;;;5113123;28;20369;-61
2023/02/27 06:45:33;;;;;;;11.33;4.50;;;6.10;1.00;;;;;;5113127;28;20103;-62
2023/02/27 06:47:59;;;;;;;4.43;3.77;;;6.10;1.00;;;;;;5111917;28;20059;-61
2023/02/27 06:50:25;;;;;;;4.40;4.00;;;6.10;1.00;;;;;;5113449;28;20024;-61
2023/02/27 06:52:50;;;;;;;5.13;4.33;;;6.10;1.00;;;;;;5112249;28;20032;-61
2023/02/27 06:55:19;;;;;;;5.37;3.90;;;6.10;1.00;;;;;;5113185;28;20381;-62
2023/02/27 06:57:46;;;;;;;4.67;3.80;;;6.10;1.00;;;;;;5112855;28;20152;-61
2023/02/27 07:00:13;;;;;;;4.67;4.20;;;6.10;1.00;;;;;;5113404;28;20038;-61
2023/02/27 07:02:38;;;;;;;5.00;3.83;;;6.30;1.00;;;;;;5112896;28;20126;-61
2023/02/27 07:05:06;;;;;;;6.37;4.70;;;6.20;1.00;;;;;;5112767;28;20042;-62
2023/02/27 07:07:31;;;;;;;6.57;4.63;;;6.30;1.00;;;;;;5112862;28;20460;-61
2023/02/27 07:09:57;;;;;;;5.03;3.70;;;6.30;1.00;;;;;;5112767;28;20034;-61
2023/02/27 07:12:23;;;;;;;6.37;4.20;;;6.30;1.00;;;;;;5094642;28;20036;-61
2023/02/27 07:14:48;;;;;;;4.63;3.57;;;6.30;1.00;;;;;;5112535;28;20029;-61
2023/02/27 07:17:14;;;;;;;8.50;4.20;;;6.40;1.00;;;;;;5112757;28;20034;-61
2023/02/27 07:19:39;;;;;;;5.93;4.20;;;6.30;1.00;;;;;;5113054;28;20036;-61
2023/02/27 07:22:08;;;;;;;8.63;3.53;;;6.40;1.00;;;;;;5112744;28;20032;-61
2023/02/27 07:24:33;;;;;;;5.67;3.67;;;6.40;1.00;;;;;;5094392;28;20024;-61
2023/02/27 07:26:59;;;;;;;5.23;3.00;;;6.40;1.00;;;;;;5112666;28;20028;-61
2023/02/27 07:29:25;;;;;;;2.93;2.60;;;6.40;1.00;;;;;;5112898;28;20077;-61
2023/02/27 07:31:50;;;;;;;3.23;2.63;;;6.30;1.00;;;;;;5112610;28;20384;-60
2023/02/27 07:34:16;;;;;;;4.73;2.57;;;6.30;1.00;;;;;;5112501;28;20102;-61
2023/02/27 07:36:42;;;;;;;4.30;2.90;;;6.30;1.00;;;;;;5112629;28;20418;-61
2023/02/27 07:39:09;;;;;;;3.43;2.40;;;6.30;1.00;;;;;;5112661;28;20538;-61
2023/02/27 07:41:35;;;;;;;3.20;2.70;;;6.30;1.00;;;;;;5112652;28;20069;-61
2023/02/27 07:44:01;;;;;;;3.23;2.53;;;6.40;1.00;;;;;;5112498;28;20105;-62
2023/02/27 07:46:26;;;;;;;3.10;2.43;;;6.40;1.00;;;;;;5112743;28;20028;-62
2023/02/27 07:48:53;;;;;;;3.73;2.30;;;6.30;1.00;;;;;;5112398;28;20349;-61
2023/02/27 07:51:19;;;;;;;4.20;2.13;;;6.40;1.00;;;;;;5112604;28;20016;-61
2023/02/27 07:53:45;;;;;;;4.57;3.07;;;6.40;1.00;;;;;;5112477;28;20028;-62
2023/02/27 07:56:10;;;;;;;3.47;2.20;;;6.30;99.90;;;;;;5109750;28;20040;-61
2023/02/27 07:58:36;;;;;;;3.63;2.40;;;6.20;99.90;;;;;;5097619;28;20035;-61
2023/02/27 08:01:01;;;;;;;3.57;3.17;;;6.20;99.90;;;;;;5106391;28;20020;-60
2023/02/27 08:03:27;;;;;;;3.87;2.90;;;6.20;99.90;;;;;;5094077;28;20118;-61
2023/02/27 08:05:52;;;;;;;4.30;2.60;;;6.20;99.90;;;;;;5112247;28;20454;-62
2023/02/27 08:08:18;;;;;;;2.73;2.47;;;6.30;99.90;;;;;;5112222;28;20035;-59
2023/02/27 08:10:44;;;;;;;3.93;2.93;;;6.30;99.90;;;;;;5112665;28;20039;-59
2023/02/27 08:13:09;;;;;;;4.80;2.80;;;6.30;99.90;;;;;;5093629;28;20039;-60
2023/02/27 08:15:35;;;;;;;3.87;3.20;;;6.30;99.90;;;;;;5093736;28;20327;-61
2023/02/27 08:18:01;;;;;;;3.83;2.90;;;6.20;99.90;;;;;;5103817;28;20074;-60
2023/02/27 08:20:26;;;;;;;4.37;3.27;;;6.20;99.90;;;;;;5097026;28;20481;-63
2023/02/27 08:22:52;;;;;;;4.20;3.53;;;6.30;99.90;;;;;;5107269;28;20035;-62
2023/02/27 08:25:19;;;;;;;4.73;3.17;;;6.20;99.90;;;;;;5115741;28;20042;-61
2023/02/27 08:27:44;;;;;;;3.50;3.20;;;6.20;99.90;;;;;;5115759;28;20549;-62
2023/02/27 08:30:11;;;;;;;5.37;3.27;;;6.20;99.90;;;;;;5101650;28;20024;-61
2023/02/27 08:32:37;;;;;;;3.50;3.20;;;6.20;99.90;;;;;;5101628;28;20047;-60
2023/02/27 08:35:03;;;;;;;6.23;3.47;;;6.20;99.90;;;;;;5076576;28;20031;-59
2023/02/27 08:37:29;;;;;;;5.57;3.60;;;6.30;99.90;;;;;;5115945;28;20019;-58
2023/02/27 08:39:55;;;;;;;6.10;3.60;;;6.40;68.20;;;;;;5115921;28;20441;-58
2023/02/27 08:42:20;;;;;;;4.83;4.27;;;6.40;17.40;;;;;;5115403;28;20114;-59
2023/02/27 08:44:46;;;;;;;5.23;4.10;;;6.40;1.00;;;;;;5115514;28;20028;-59
2023/02/27 08:47:11;;;;;;;5.13;3.90;;;6.50;1.00;;;;;;5096552;28;20027;-60
2023/02/27 08:49:37;;;;;;;4.83;3.37;;;6.50;1.00;;;;;;5107734;28;20400;-60
2023/02/27 08:52:04;;;;;;;5.10;4.33;;;6.50;1.00;;;;;;5091026;28;20034;-59
2023/02/27 08:54:30;;;;;;;5.50;3.43;;;6.60;1.00;;;;;;5115586;28;20465;-62
2023/02/27 08:56:56;;;;;;;5.87;3.67;;;6.60;1.00;;;;;;5106025;28;20531;-62
2023/02/27 08:59:22;;;;;;;3.73;3.23;;;6.50;1.00;;;;;;5113680;28;20028;-62
2023/02/27 09:01:47;;;;;;;4.87;3.63;;;6.50;1.00;;;;;;5115958;28;20039;-62
2023/02/27 09:04:13;;;;;;;3.00;2.70;;;6.60;1.00;;;;;;5115585;28;20038;-61
2023/02/27 09:06:39;;;;;;;4.60;2.83;;;6.60;1.00;;;;;;5115558;28;20035;-61
2023/02/27 09:09:05;;;;;;;4.07;2.97;;;6.30;1.00;;;;;;5094947;28;20134;-60
2023/02/27 09:11:31;;;;;;;6.53;3.90;;;6.40;1.00;;;;;;5107030;27;20111;-63
2023/02/27 09:13:57;;;;;;;5.63;3.43;;;6.60;1.00;;;;;;5123520;27;20026;-63
2023/02/27 09:16:23;;;;;;;4.50;3.60;;;6.70;1.00;;;;;;5114970;28;20031;-55
2023/02/27 09:18:49;;;;;;;5.40;3.80;;;6.70;1.00;;;;;;5114301;28;20020;-62
2023/02/27 09:21:16;;;;;;;4.83;4.33;;;6.80;1.00;;;;;;5106814;28;20058;-60
2023/02/27 09:23:41;;;;;;;5.83;4.00;;;6.80;1.00;;;;;;5100035;28;20104;-63
2023/02/27 09:26:10;;;;;;;7.50;3.67;;;6.90;1.00;;;;;;5114675;28;20098;-60
2023/02/27 09:28:38;;;;;;;6.30;4.50;;;6.90;1.00;;;;;;5117341;27;20442;-62
2023/02/27 09:31:05;;;;;;;4.47;3.57;;;6.90;1.00;;;;;;5126297;27;20020;-70
2023/02/27 09:33:32;;;;;;;5.23;3.37;;;6.90;1.00;;;;;;5114831;28;20441;-70
2023/02/27 09:35:58;;;;;;;4.00;3.37;;;6.80;1.00;;;;;;5122687;27;20065;-73
2023/02/27 09:38:24;;;;;;;9.43;4.30;;;6.90;1.00;;;;;;5121594;27;20028;-67
2023/02/27 09:40:52;;;;;;;5.50;4.07;;;7.00;1.00;;;;;;5114663;28;20114;-67
2023/02/27 09:43:23;;;;;;;5.33;4.23;;;7.10;1.00;;;;;;5115016;28;20028;-67
2023/02/27 09:45:54;;;;;;;4.33;4.03;;;7.20;1.00;;;;;;5114685;28;20077;-67
2023/02/27 09:48:23;;;;;;;7.00;4.57;;;7.30;1.00;;;;;;5096225;28;20031;-66
2023/02/27 09:50:51;;;;;;;5.57;4.40;;;7.20;1.00;;;;;;5114392;28;20028;-68
2023/02/27 09:53:39;;;;;;;5.63;4.90;;;7.30;1.00;;;;;;5095741;28;20023;-65
2023/02/27 09:56:25;;;;;;;4.60;4.20;;;7.00;1.00;;;;;;5128458;27;20028;-54
2023/02/27 09:58:59;;;;;;;6.00;4.47;;;7.10;1.00;;;;;;5095772;28;20051;-67
2023/02/27 10:01:46;;;;;;;5.60;5.05;;;7.20;1.00;;;;;;5106210;28;20055;-59
2023/02/27 10:04:27;;;;;;;7.37;4.80;;;7.30;1.00;;;;;;5101373;28;20028;-65
2023/02/27 10:07:04;;;;;;;10.30;5.67;;;7.30;1.00;;;;;;5114345;28;20022;-69
2023/02/27 10:10:06;;;;;;;6.17;4.23;;;7.40;1.00;;;;;;5108573;28;20028;-61
2023/02/27 10:13:03;;;;;;;7.47;4.80;;;7.50;1.00;;;;;;5109494;28;20369;-65
2023/02/27 10:15:46;;;;;;;5.23;4.53;;;7.50;1.00;;;;;;5082023;28;20020;-60
2023/02/27 10:18:21;;;;;;;6.40;4.03;;;7.50;1.00;;;;;;5114554;28;20507;-64
2023/02/27 10:20:55;;;;;;;6.13;3.70;;;7.50;1.00;;;;;;5113770;28;20038;-64
2023/02/27 10:23:30;;;;;;;4.87;4.40;;;7.50;1.00;;;;;;5109588;28;20488;-64
2023/02/27 10:25:58;;;;;;;4.73;4.23;;;7.60;1.00;;;;;;5101197;28;20036;-64
2023/02/27 10:28:26;;;;;;;8.30;4.37;;;7.70;1.00;;;;;;5108817;28;20031;-64
2023/02/27 10:30:58;;;;;;;5.97;4.00;;;7.70;1.00;;;;;;5113730;28;20026;-63
2023/02/27 10:33:26;;;;;;;8.00;5.83;;;7.70;1.00;;;;;;5114034;28;20032;-62
2023/02/27 10:35:52;;;;;;;6.30;4.37;;;7.80;1.00;;;;;;5113625;28;20029;-64
2023/02/27 10:38:39;;;;;;;9.33;3.60;;;7.90;1.00;;;;;;5113996;28;20073;-68
2023/02/27 10:41:08;;;;;;;4.53;4.13;;;7.90;1.00;;;;;;5108238;27;20030;-70
2023/02/27 10:43:34;;;;;;;5.90;4.57;;;7.90;1.00;;;;;;5119726;27;20112;-69
2023/02/27 10:46:02;;;;;;;5.33;3.40;;;8.00;1.00;;;;;;5113962;28;20481;-61
2023/02/27 10:48:28;;;;;;;5.17;4.10;;;8.10;1.00;;;;;;5113235;28;20481;-62
2023/02/27 10:51:21;;;;;;;7.20;5.00;;;8.00;1.00;;;;;;5113249;28;20023;-62
2023/02/27 10:53:46;;;;;;;6.37;4.50;;;8.00;1.00;;;;;;5113348;28;20512;-63
2023/02/27 10:56:17;;;;;;;5.33;4.70;;;8.10;1.00;;;;;;5113249;28;20032;-65
2023/02/27 10:58:43;;;;;;;12.93;4.93;;;8.20;1.00;;;;;;5113309;28;20028;-64
2023/02/27 11:01:10;;;;;;;6.63;4.87;;;8.30;1.00;;;;;;5113096;28;20016;-64
2023/02/27 11:03:37;;;;;;;4.83;4.30;;;8.30;1.00;;;;;;5113377;28;20045;-62
2023/02/27 11:06:08;;;;;;;7.67;4.33;;;8.30;1.00;;;;;;5116081;27;20425;-67
2023/02/27 11:08:34;;;;;;;6.43;4.83;;;8.30;1.00;;;;;;5122839;27;20159;-67
2023/02/27 11:11:09;;;;;;;4.87;4.40;;;8.30;1.00;;;;;;5110143;28;20027;-66
2023/02/27 11:13:41;;;;;;;5.37;4.13;;;8.20;1.00;;;;;;5101519;28;20031;-66
2023/02/27 11:16:20;;;;;;;7.47;4.57;;;8.20;1.00;;;;;;5109642;28;20023;-66
2023/02/27 11:18:51;;;;;;;6.73;4.47;;;8.30;1.00;;;;;;5102468;28;20032;-66
2023/02/27 11:21:19;;;;;;;6.03;4.60;;;8.50;1.00;;;;;;5082659;28;20111;-65
2023/02/27 11:23:57;;;;;;;5.83;4.97;;;8.50;1.00;;;;;;5094375;28;20039;-65
2023/02/27 11:26:36;;;;;;;7.87;4.40;;;8.40;1.00;;;;;;5089042;28;20038;-65
2023/02/27 11:29:22;;;;;;;5.17;4.50;;;8.40;1.00;;;;;;5112720;28;20106;-65
2023/02/27 11:31:51;;;;;;;5.33;4.00;;;8.40;1.00;;;;;;5094012;28;20097;-59
2023/02/27 11:34:37;;;;;;;5.43;4.17;;;8.40;1.00;;;;;;5110373;28;20024;-61
2023/02/27 11:37:25;;;;;;;6.77;4.50;;;8.50;1.00;;;;;;5112874;28;20038;-61
2023/02/27 11:40:09;;;;;;;4.30;3.87;;;8.60;1.00;;;;;;5099692;28;20020;-61
2023/02/27 11:42:40;;;;;;;4.37;3.97;;;8.60;1.00;;;;;;5105115;28;20384;-62
2023/02/27 11:45:19;;;;;;;5.97;4.33;;;8.70;1.00;;;;;;5094337;28;20023;-62
2023/02/27 11:47:49;;;;;;;4.37;3.93;;;8.70;1.00;;;;;;5112571;28;20032;-61
2023/02/27 11:50:50;;;;;;;5.07;3.40;;;8.70;1.00;;;;;;5094307;28;20396;-61
2023/02/27 11:54:00;;;;;;;7.07;3.60;;;8.60;1.00;;;;;;5113353;28;20008;-61
2023/02/27 11:56:49;;;;;;;5.60;3.53;;;8.70;1.00;;;;;;5111337;28;20081;-60
2023/02/27 11:59:52;;;;;;;3.40;1.90;;;8.80;1.00;;;;;;5098434;28;20417;-61
2023/02/27 12:02:38;;;;;;;4.73;3.13;;;8.80;1.00;;;;;;5103793;28;20036;-61
2023/02/27 12:05:18;;;;;;;2.37;2.00;;;8.80;1.00;;;;;;5114521;28;20114;-61
2023/02/27 12:07:51;;;;;;;3.23;1.97;;;8.80;1.00;;;;;;5106234;28;20030;-60
2023/02/27 12:10:23;;;;;;;6.47;2.37;;;8.70;1.00;;;;;;5098078;28;20024;-61
2023/02/27 12:12:57;;;;;;;1.47;1.20;;;8.90;1.00;;;;;;5116607;28;20119;-60
2023/02/27 12:15:31;;;;;;;8.00;1.80;;;8.80;1.00;;;;;;5116138;28;20012;-63
2023/02/27 12:17:56;;;;;;;2.70;1.45;;;8.90;1.00;;;;;;5115883;28;20032;-62
2023/02/27 12:20:31;;;;;;;4.93;1.97;;;8.80;1.00;;;;;;5115602;28;20043;-61
2023/02/27 12:22:56;;;;;;;6.65;1.98;;;8.70;1.00;;;;;;5116021;28;20119;-64
2023/02/27 12:25:45;;;;;;;2.57;2.17;;;8.70;1.00;;;;;;5115535;28;20019;-50
2023/02/27 12:28:38;;;;;;;3.70;2.60;;;8.80;1.00;;;;;;5115720;28;20058;-51
2023/02/27 12:31:16;;;;;;;5.90;2.13;;;9.00;1.00;;;;;;5115952;28;20028;-50
2023/02/27 12:34:14;;;;;;;3.27;1.80;;;8.90;1.00;;;;;;5115625;28;20461;-60
2023/02/27 12:36:40;;;;;;;5.25;2.20;;;9.10;1.00;;;;;;5084292;28;20544;-61
2023/02/27 12:39:17;;;;;;;2.47;2.27;;;9.20;1.00;;;;;;5115590;28;20051;-62
2023/02/27 12:41:55;;;;;;;3.93;2.27;;;9.30;1.00;;;;;;5115749;28;20034;-61
2023/02/27 12:44:30;;;;;;;7.03;3.03;;;9.40;1.00;;;;;;5097067;28;20053;-60
2023/02/27 12:46:59;;;;;;;2.77;2.53;;;9.50;1.00;;;;;;5115558;28;20106;-60
2023/02/27 12:49:40;;;;;;;3.80;2.60;;;9.50;1.00;;;;;;5115285;28;20549;-61
2023/02/27 12:52:35;;;;;;;3.63;2.87;;;9.50;1.00;;;;;;5093412;28;20477;-61
2023/02/27 12:55:06;;;;;;;4.18;2.88;;;9.60;1.00;;;;;;5026121;28;20042;-63
2023/02/27 12:57:56;;;;;;;3.90;3.17;;;9.60;1.00;;;;;;5112792;28;20078;-61
2023/02/27 13:00:27;;;;;;;5.03;2.80;;;9.80;1.00;;;;;;5115434;28;20028;-62
2023/02/27 13:03:14;;;;;;;3.80;2.50;;;9.80;1.00;;;;;;5114419;28;20050;-63
2023/02/27 13:06:10;;;;;;;5.40;2.60;;;9.70;1.00;;;;;;5096897;28;20019;-58
2023/02/27 13:09:13;;;;;;;3.30;2.70;;;9.80;1.00;;;;;;5104772;28;20027;-61
2023/02/27 13:12:18;;;;;;;5.57;3.07;;;9.80;1.00;;;;;;5101966;28;20027;-63
2023/02/27 13:14:48;;;;;;;5.40;3.05;;;9.80;1.00;;;;;;5115052;28;20052;-60
2023/02/27 13:17:37;;;;;;;4.07;2.95;;;9.80;1.00;;;;;;5115146;28;20032;-68
2023/02/27 13:20:21;;;;;;;5.20;3.05;;;9.60;1.00;;;;;;5107807;28;20482;-64
2023/02/27 13:22:59;;;;;;;3.00;2.80;;;9.60;1.00;;;;;;5115161;28;20043;-65
2023/02/27 13:25:27;;;;;;;3.25;2.90;;;9.70;1.00;;;;;;5113287;28;20472;-72
2023/02/27 13:28:03;;;;;;;2.90;2.60;;;9.70;1.00;;;;;;5115246;28;20023;-70
2023/02/27 13:30:40;;;;;;;6.43;5.13;;;9.70;1.00;;;;;;5114935;28;20035;-72
2023/02/27 13:33:39;;;;;;;4.18;3.05;;;9.80;1.00;;;;;;5115084;28;20385;-67
2023/02/27 13:36:26;;;;;;;4.93;2.50;;;9.80;1.00;;;;;;5114914;28;20077;-66